sensor_id;sensor_type;location;lat;lon;timestamp;pressure;altitude;pressure_sealevel;temperature;humidity
74334;BME280;62753;40.394;-80.022;2023-12-20T00:01:14;98395.22;;;4.81;29.02
74334;BME280;62753;40.394;-80.022;2023-12-20T00:03:40;98403.92;;;4.64;29.27
74334;BME280;62753;40.394;-80.022;2023-12-20T00:06:06;98408.90;;;3.62;29.95
74334;BME280;62753;40.394;-80.022;2023-12-20T00:08:30;98407.01;;;3.43;31.34
74334;BME280;62753;40.394;-80.022;2023-12-20T00:10:55;98410.43;;;4.19;30.10
74334;BME280;62753;40.394;-80.022;2023-12-20T00:13:21;98414.52;;;4.45;29.36
74334;BME280;62753;40.394;-80.022;2023-12-20T00:15:47;98422.87;;;4.71;29.86
74334;BME280;62753;40.394;-80.022;2023-12-20T00:18:12;98431.07;;;3.65;30.08
74334;BME280;62753;40.394;-80.022;2023-12-20T00:20:39;98429.77;;;5.65;28.15
74334;BME280;62753;40.394;-80.022;2023-12-20T00:23:04;98423.06;;;5.70;28.05
74334;BME280;62753;40.394;-80.022;2023-12-20T00:25:31;98423.60;;;5.71;27.69
74334;BME280;62753;40.394;-80.022;2023-12-20T00:27:55;98424.79;;;4.71;28.90
74334;BME280;62753;40.394;-80.022;2023-12-20T00:30:23;98430.28;;;4.53;29.48
74334;BME280;62753;40.394;-80.022;2023-12-20T00:32:48;98434.74;;;4.06;30.42
74334;BME280;62753;40.394;-80.022;2023-12-20T00:35:14;98434.91;;;4.75;29.01
74334;BME280;62753;40.394;-80.022;2023-12-20T00:37:38;98436.95;;;4.89;29.29
74334;BME280;62753;40.394;-80.022;2023-12-20T00:40:06;98441.64;;;3.70;31.67
74334;BME280;62753;40.394;-80.022;2023-12-20T00:42:29;98442.37;;;4.49;30.55
74334;BME280;62753;40.394;-80.022;2023-12-20T00:44:55;98442.71;;;4.50;29.53
74334;BME280;62753;40.394;-80.022;2023-12-20T00:47:22;98444.76;;;5.35;29.48
74334;BME280;62753;40.394;-80.022;2023-12-20T00:49:47;98446.81;;;4.47;30.31
74334;BME280;62753;40.394;-80.022;2023-12-20T00:52:14;98445.99;;;4.65;29.21
74334;BME280;62753;40.394;-80.022;2023-12-20T00:54:39;98446.55;;;4.58;29.52
74334;BME280;62753;40.394;-80.022;2023-12-20T00:57:05;98441.13;;;4.60;29.63
74334;BME280;62753;40.394;-80.022;2023-12-20T00:59:30;98445.53;;;4.42;29.90
74334;BME280;62753;40.394;-80.022;2023-12-20T01:01:55;98443.05;;;4.54;29.56
74334;BME280;62753;40.394;-80.022;2023-12-20T01:04:20;98443.58;;;4.61;29.94
74334;BME280;62753;40.394;-80.022;2023-12-20T01:06:50;98446.33;;;3.23;31.71
74334;BME280;62753;40.394;-80.022;2023-12-20T01:09:12;98445.25;;;3.59;30.84
74334;BME280;62753;40.394;-80.022;2023-12-20T01:11:37;98453.70;;;3.23;31.99
74334;BME280;62753;40.394;-80.022;2023-12-20T01:14:09;98462.17;;;3.31;31.69
74334;BME280;62753;40.394;-80.022;2023-12-20T01:16:29;98461.52;;;3.89;30.95
74334;BME280;62753;40.394;-80.022;2023-12-20T01:18:56;98464.39;;;3.46;31.26
74334;BME280;62753;40.394;-80.022;2023-12-20T01:21:20;98467.53;;;3.47;31.33
74334;BME280;62753;40.394;-80.022;2023-12-20T01:23:46;98468.30;;;3.91;31.06
74334;BME280;62753;40.394;-80.022;2023-12-20T01:26:15;98472.25;;;3.86;30.89
74334;BME280;62753;40.394;-80.022;2023-12-20T01:28:39;98476.77;;;3.61;30.94
74334;BME280;62753;40.394;-80.022;2023-12-20T01:31:05;98474.48;;;3.65;31.99
74334;BME280;62753;40.394;-80.022;2023-12-20T01:33:31;98477.62;;;3.77;30.50
74334;BME280;62753;40.394;-80.022;2023-12-20T01:35:55;98480.79;;;3.96;30.90
74334;BME280;62753;40.394;-80.022;2023-12-20T01:38:21;98486.89;;;4.05;30.46
74334;BME280;62753;40.394;-80.022;2023-12-20T01:40:48;98490.07;;;4.20;30.16
74334;BME280;62753;40.394;-80.022;2023-12-20T01:43:14;98491.91;;;4.38;30.08
74334;BME280;62753;40.394;-80.022;2023-12-20T01:45:40;98495.69;;;4.40;30.23
74334;BME280;62753;40.394;-80.022;2023-12-20T01:48:04;98496.08;;;3.56;30.95
74334;BME280;62753;40.394;-80.022;2023-12-20T01:50:29;98494.98;;;4.18;29.91
74334;BME280;62753;40.394;-80.022;2023-12-20T01:52:57;98494.14;;;3.89;30.76
74334;BME280;62753;40.394;-80.022;2023-12-20T01:55:21;98498.44;;;3.01;31.58
74334;BME280;62753;40.394;-80.022;2023-12-20T01:57:48;98500.99;;;4.41;29.80
74334;BME280;62753;40.394;-80.022;2023-12-20T02:00:13;98499.65;;;3.87;30.82
74334;BME280;62753;40.394;-80.022;2023-12-20T02:02:40;98505.55;;;4.25;29.83
74334;BME280;62753;40.394;-80.022;2023-12-20T02:05:08;98504.19;;;3.91;31.32
74334;BME280;62753;40.394;-80.022;2023-12-20T02:07:29;98509.54;;;3.68;31.69
74334;BME280;62753;40.394;-80.022;2023-12-20T02:09:55;98517.03;;;3.57;31.24
74334;BME280;62753;40.394;-80.022;2023-12-20T02:12:20;98518.99;;;3.76;31.39
74334;BME280;62753;40.394;-80.022;2023-12-20T02:14:47;98523.12;;;3.27;32.23
74334;BME280;62753;40.394;-80.022;2023-12-20T02:17:12;98522.96;;;3.81;31.58
74334;BME280;62753;40.394;-80.022;2023-12-20T02:19:38;98522.30;;;3.54;31.19
74334;BME280;62753;40.394;-80.022;2023-12-20T02:22:08;98528.36;;;4.04;30.75
74334;BME280;62753;40.394;-80.022;2023-12-20T02:24:30;98531.98;;;3.73;31.06
74334;BME280;62753;40.394;-80.022;2023-12-20T02:26:55;98537.16;;;3.54;32.42
74334;BME280;62753;40.394;-80.022;2023-12-20T02:29:23;98535.88;;;3.30;32.04
74334;BME280;62753;40.394;-80.022;2023-12-20T02:31:46;98537.35;;;3.54;32.36
74334;BME280;62753;40.394;-80.022;2023-12-20T02:34:12;98541.16;;;3.35;32.62
74334;BME280;62753;40.394;-80.022;2023-12-20T02:36:38;98538.88;;;3.84;31.67
74334;BME280;62753;40.394;-80.022;2023-12-20T02:39:03;98538.91;;;4.02;31.17
74334;BME280;62753;40.394;-80.022;2023-12-20T02:41:29;98539.07;;;3.83;31.63
74334;BME280;62753;40.394;-80.022;2023-12-20T02:43:58;98544.25;;;3.24;31.88
74334;BME280;62753;40.394;-80.022;2023-12-20T02:46:23;98539.02;;;3.62;31.47
74334;BME280;62753;40.394;-80.022;2023-12-20T02:48:46;98533.21;;;3.90;30.66
74334;BME280;62753;40.394;-80.022;2023-12-20T02:51:13;98532.40;;;3.80;31.48
74334;BME280;62753;40.394;-80.022;2023-12-20T02:53:37;98535.33;;;3.82;31.37
74334;BME280;62753;40.394;-80.022;2023-12-20T02:56:08;98545.01;;;3.81;31.58
74334;BME280;62753;40.394;-80.022;2023-12-20T02:58:30;98544.70;;;4.46;30.49
74334;BME280;62753;40.394;-80.022;2023-12-20T03:00:56;98547.52;;;4.15;30.64
74334;BME280;62753;40.394;-80.022;2023-12-20T03:03:22;98543.94;;;4.44;29.97
74334;BME280;62753;40.394;-80.022;2023-12-20T03:05:46;98549.52;;;4.73;29.68
74334;BME280;62753;40.394;-80.022;2023-12-20T03:08:12;98556.70;;;2.68;32.74
74334;BME280;62753;40.394;-80.022;2023-12-20T03:10:38;98551.91;;;3.61;31.39
74334;BME280;62753;40.394;-80.022;2023-12-20T03:13:05;98553.04;;;3.74;30.78
74334;BME280;62753;40.394;-80.022;2023-12-20T03:15:30;98559.81;;;3.01;31.86
74334;BME280;62753;40.394;-80.022;2023-12-20T03:17:57;98559.69;;;2.95;31.96
74334;BME280;62753;40.394;-80.022;2023-12-20T03:20:20;98561.35;;;2.67;31.94
74334;BME280;62753;40.394;-80.022;2023-12-20T03:22:48;98564.29;;;2.54;31.97
74334;BME280;62753;40.394;-80.022;2023-12-20T03:25:13;98565.65;;;2.73;32.27
74334;BME280;62753;40.394;-80.022;2023-12-20T03:27:37;98561.99;;;4.69;29.86
74334;BME280;62753;40.394;-80.022;2023-12-20T03:30:07;98562.09;;;3.47;30.74
74334;BME280;62753;40.394;-80.022;2023-12-20T03:32:29;98557.40;;;3.49;31.13
74334;BME280;62753;40.394;-80.022;2023-12-20T03:34:54;98560.89;;;3.58;30.35
74334;BME280;62753;40.394;-80.022;2023-12-20T03:37:24;98559.65;;;4.37;29.64
74334;BME280;62753;40.394;-80.022;2023-12-20T03:39:46;98562.25;;;4.77;29.67
74334;BME280;62753;40.394;-80.022;2023-12-20T03:42:12;98562.57;;;4.72;29.81
74334;BME280;62753;40.394;-80.022;2023-12-20T03:44:39;98566.67;;;4.34;29.99
74334;BME280;62753;40.394;-80.022;2023-12-20T03:47:06;98568.24;;;3.98;30.43
74334;BME280;62753;40.394;-80.022;2023-12-20T03:49:29;98570.29;;;3.36;30.88
74334;BME280;62753;40.394;-80.022;2023-12-20T03:51:54;98571.40;;;3.50;31.18
74334;BME280;62753;40.394;-80.022;2023-12-20T03:54:19;98573.97;;;4.17;30.05
74334;BME280;62753;40.394;-80.022;2023-12-20T03:56:45;98580.10;;;2.88;31.68
74334;BME280;62753;40.394;-80.022;2023-12-20T03:59:10;98576.10;;;3.05;31.67
74334;BME280;62753;40.394;-80.022;2023-12-20T04:01:36;98577.97;;;2.66;32.35
74334;BME280;62753;40.394;-80.022;2023-12-20T04:04:04;98575.77;;;3.08;31.87
74334;BME280;62753;40.394;-80.022;2023-12-20T04:06:27;98580.24;;;3.07;31.57
74334;BME280;62753;40.394;-80.022;2023-12-20T04:08:53;98582.33;;;2.33;32.72
74334;BME280;62753;40.394;-80.022;2023-12-20T04:11:18;98579.46;;;2.97;32.38
74334;BME280;62753;40.394;-80.022;2023-12-20T04:13:45;98581.70;;;3.14;31.64
74334;BME280;62753;40.394;-80.022;2023-12-20T04:16:10;98582.91;;;2.79;31.63
74334;BME280;62753;40.394;-80.022;2023-12-20T04:18:37;98580.64;;;3.94;30.67
74334;BME280;62753;40.394;-80.022;2023-12-20T04:21:01;98583.83;;;4.30;30.00
74334;BME280;62753;40.394;-80.022;2023-12-20T04:23:26;98581.60;;;3.54;30.82
74334;BME280;62753;40.394;-80.022;2023-12-20T04:25:54;98583.60;;;4.76;30.07
74334;BME280;62753;40.394;-80.022;2023-12-20T04:28:18;98579.25;;;4.39;30.28
74334;BME280;62753;40.394;-80.022;2023-12-20T04:30:42;98577.32;;;4.18;30.05
74334;BME280;62753;40.394;-80.022;2023-12-20T04:33:08;98581.23;;;2.62;32.52
74334;BME280;62753;40.394;-80.022;2023-12-20T04:35:34;98584.70;;;3.75;31.41
74334;BME280;62753;40.394;-80.022;2023-12-20T04:37:59;98585.54;;;3.60;31.14
74334;BME280;62753;40.394;-80.022;2023-12-20T04:40:25;98581.10;;;3.62;30.76
74334;BME280;62753;40.394;-80.022;2023-12-20T04:42:50;98582.76;;;3.87;31.11
74334;BME280;62753;40.394;-80.022;2023-12-20T04:45:16;98581.48;;;4.38;30.86
74334;BME280;62753;40.394;-80.022;2023-12-20T04:47:43;98584.75;;;3.65;31.11
74334;BME280;62753;40.394;-80.022;2023-12-20T04:50:09;98582.18;;;3.86;30.92
74334;BME280;62753;40.394;-80.022;2023-12-20T04:52:36;98584.28;;;1.63;32.83
74334;BME280;62753;40.394;-80.022;2023-12-20T04:54:58;98589.40;;;2.77;32.20
74334;BME280;62753;40.394;-80.022;2023-12-20T04:57:24;98595.44;;;2.74;32.59
74334;BME280;62753;40.394;-80.022;2023-12-20T04:59:50;98599.21;;;2.79;31.60
74334;BME280;62753;40.394;-80.022;2023-12-20T05:02:17;98599.39;;;4.10;30.78
74334;BME280;62753;40.394;-80.022;2023-12-20T05:04:43;98607.40;;;3.53;30.74
74334;BME280;62753;40.394;-80.022;2023-12-20T05:07:07;98612.14;;;3.74;31.01
74334;BME280;62753;40.394;-80.022;2023-12-20T05:09:32;98613.35;;;3.89;30.56
74334;BME280;62753;40.394;-80.022;2023-12-20T05:12:00;98614.99;;;3.90;31.03
74334;BME280;62753;40.394;-80.022;2023-12-20T05:14:25;98613.93;;;3.20;31.96
74334;BME280;62753;40.394;-80.022;2023-12-20T05:16:52;98615.44;;;3.74;30.85
74334;BME280;62753;40.394;-80.022;2023-12-20T05:19:17;98615.48;;;3.65;30.84
74334;BME280;62753;40.394;-80.022;2023-12-20T05:21:41;98616.89;;;3.01;31.85
74334;BME280;62753;40.394;-80.022;2023-12-20T05:24:07;98616.72;;;3.64;31.01
74334;BME280;62753;40.394;-80.022;2023-12-20T05:26:33;98616.44;;;2.69;32.38
74334;BME280;62753;40.394;-80.022;2023-12-20T05:28:57;98614.74;;;4.25;31.25
74334;BME280;62753;40.394;-80.022;2023-12-20T05:31:25;98610.59;;;3.89;30.75
74334;BME280;62753;40.394;-80.022;2023-12-20T05:33:49;98613.48;;;2.98;31.68
74334;BME280;62753;40.394;-80.022;2023-12-20T05:36:13;98612.26;;;3.91;31.24
74334;BME280;62753;40.394;-80.022;2023-12-20T05:38:39;98612.68;;;3.36;31.70
74334;BME280;62753;40.394;-80.022;2023-12-20T05:41:04;98614.80;;;3.05;32.05
74334;BME280;62753;40.394;-80.022;2023-12-20T05:43:31;98611.13;;;2.84;32.62
74334;BME280;62753;40.394;-80.022;2023-12-20T05:45:55;98607.68;;;2.33;33.32
74334;BME280;62753;40.394;-80.022;2023-12-20T05:48:21;98603.48;;;2.39;33.90
74334;BME280;62753;40.394;-80.022;2023-12-20T05:50:47;98604.92;;;2.32;34.27
74334;BME280;62753;40.394;-80.022;2023-12-20T05:53:14;98609.83;;;3.16;32.90
74334;BME280;62753;40.394;-80.022;2023-12-20T05:55:38;98613.88;;;3.38;32.28
74334;BME280;62753;40.394;-80.022;2023-12-20T05:58:04;98611.33;;;2.89;32.71
74334;BME280;62753;40.394;-80.022;2023-12-20T06:00:30;98614.64;;;3.39;32.16
74334;BME280;62753;40.394;-80.022;2023-12-20T06:02:55;98612.80;;;3.33;31.81
74334;BME280;62753;40.394;-80.022;2023-12-20T06:05:21;98615.04;;;3.15;32.04
74334;BME280;62753;40.394;-80.022;2023-12-20T06:07:48;98608.16;;;2.99;32.32
74334;BME280;62753;40.394;-80.022;2023-12-20T06:10:15;98609.66;;;2.74;32.78
74334;BME280;62753;40.394;-80.022;2023-12-20T06:12:38;98607.04;;;2.56;33.36
74334;BME280;62753;40.394;-80.022;2023-12-20T06:15:04;98608.80;;;2.51;33.09
74334;BME280;62753;40.394;-80.022;2023-12-20T06:17:29;98609.44;;;2.20;33.83
74334;BME280;62753;40.394;-80.022;2023-12-20T06:19:57;98611.75;;;2.30;33.43
74334;BME280;62753;40.394;-80.022;2023-12-20T06:22:20;98614.00;;;2.33;33.67
74334;BME280;62753;40.394;-80.022;2023-12-20T06:24:46;98615.08;;;2.73;33.40
74334;BME280;62753;40.394;-80.022;2023-12-20T06:27:11;98616.74;;;2.83;32.82
74334;BME280;62753;40.394;-80.022;2023-12-20T06:29:37;98617.91;;;1.97;33.91
74334;BME280;62753;40.394;-80.022;2023-12-20T06:32:03;98620.61;;;1.96;34.28
74334;BME280;62753;40.394;-80.022;2023-12-20T06:34:28;98619.04;;;2.41;33.87
74334;BME280;62753;40.394;-80.022;2023-12-20T06:36:53;98624.18;;;1.89;34.45
74334;BME280;62753;40.394;-80.022;2023-12-20T06:39:20;98624.18;;;1.92;34.84
74334;BME280;62753;40.394;-80.022;2023-12-20T06:41:46;98622.42;;;2.28;34.34
74334;BME280;62753;40.394;-80.022;2023-12-20T06:44:10;98621.71;;;2.98;33.41
74334;BME280;62753;40.394;-80.022;2023-12-20T06:46:36;98621.87;;;1.37;35.21
74334;BME280;62753;40.394;-80.022;2023-12-20T06:49:02;98616.89;;;1.67;34.72
74334;BME280;62753;40.394;-80.022;2023-12-20T06:51:29;98617.83;;;2.01;34.54
74334;BME280;62753;40.394;-80.022;2023-12-20T06:53:53;98617.44;;;0.92;36.49
74334;BME280;62753;40.394;-80.022;2023-12-20T06:56:18;98615.06;;;0.98;36.78
74334;BME280;62753;40.394;-80.022;2023-12-20T06:58:44;98617.70;;;1.68;35.53
74334;BME280;62753;40.394;-80.022;2023-12-20T07:01:11;98610.29;;;0.79;36.73
74334;BME280;62753;40.394;-80.022;2023-12-20T07:03:35;98613.36;;;1.80;35.71
74334;BME280;62753;40.394;-80.022;2023-12-20T07:06:02;98613.32;;;0.43;37.37
74334;BME280;62753;40.394;-80.022;2023-12-20T07:08:27;98615.75;;;0.39;37.08
74334;BME280;62753;40.394;-80.022;2023-12-20T07:10:53;98614.61;;;0.47;37.31
74334;BME280;62753;40.394;-80.022;2023-12-20T07:13:19;98614.31;;;1.46;36.20
74334;BME280;62753;40.394;-80.022;2023-12-20T07:15:43;98614.14;;;1.62;35.58
74334;BME280;62753;40.394;-80.022;2023-12-20T07:18:09;98619.55;;;1.45;35.64
74334;BME280;62753;40.394;-80.022;2023-12-20T07:20:34;98619.57;;;1.57;35.62
74334;BME280;62753;40.394;-80.022;2023-12-20T07:23:00;98616.42;;;1.33;36.18
74334;BME280;62753;40.394;-80.022;2023-12-20T07:25:26;98622.44;;;1.51;35.17
74334;BME280;62753;40.394;-80.022;2023-12-20T07:27:52;98620.03;;;2.06;34.25
74334;BME280;62753;40.394;-80.022;2023-12-20T07:30:17;98618.15;;;2.44;33.74
74334;BME280;62753;40.394;-80.022;2023-12-20T07:32:42;98619.09;;;1.70;34.39
74334;BME280;62753;40.394;-80.022;2023-12-20T07:35:09;98615.80;;;2.91;33.36
74334;BME280;62753;40.394;-80.022;2023-12-20T07:37:34;98612.39;;;2.60;33.21
74334;BME280;62753;40.394;-80.022;2023-12-20T07:40:01;98612.59;;;2.98;32.20
74334;BME280;62753;40.394;-80.022;2023-12-20T07:42:27;98616.35;;;2.39;33.39
74334;BME280;62753;40.394;-80.022;2023-12-20T07:44:53;98621.20;;;3.03;32.21
74334;BME280;62753;40.394;-80.022;2023-12-20T07:47:17;98618.35;;;2.59;32.84
74334;BME280;62753;40.394;-80.022;2023-12-20T07:49:44;98615.63;;;2.18;33.08
74334;BME280;62753;40.394;-80.022;2023-12-20T07:52:08;98619.03;;;2.52;32.54
74334;BME280;62753;40.394;-80.022;2023-12-20T07:54:34;98622.62;;;2.69;32.16
74334;BME280;62753;40.394;-80.022;2023-12-20T07:57:01;98627.25;;;3.15;31.64
74334;BME280;62753;40.394;-80.022;2023-12-20T07:59:25;98618.57;;;4.29;30.43
74334;BME280;62753;40.394;-80.022;2023-12-20T08:01:51;98620.90;;;4.06;29.70
74334;BME280;62753;40.394;-80.022;2023-12-20T08:04:16;98628.49;;;3.80;30.40
74334;BME280;62753;40.394;-80.022;2023-12-20T08:06:43;98633.14;;;3.00;31.03
74334;BME280;62753;40.394;-80.022;2023-12-20T08:09:09;98631.89;;;2.54;32.13
74334;BME280;62753;40.394;-80.022;2023-12-20T08:11:34;98636.83;;;2.26;33.06
74334;BME280;62753;40.394;-80.022;2023-12-20T08:14:01;98640.94;;;3.39;31.20
74334;BME280;62753;40.394;-80.022;2023-12-20T08:16:28;98641.44;;;3.35;31.76
74334;BME280;62753;40.394;-80.022;2023-12-20T08:18:51;98641.48;;;2.88;31.55
74334;BME280;62753;40.394;-80.022;2023-12-20T08:21:15;98639.01;;;3.35;30.95
74334;BME280;62753;40.394;-80.022;2023-12-20T08:23:41;98638.10;;;2.91;31.97
74334;BME280;62753;40.394;-80.022;2023-12-20T08:26:07;98636.79;;;3.61;31.27
74334;BME280;62753;40.394;-80.022;2023-12-20T08:28:34;98633.31;;;3.20;31.22
74334;BME280;62753;40.394;-80.022;2023-12-20T08:31:00;98635.58;;;2.95;31.43
74334;BME280;62753;40.394;-80.022;2023-12-20T08:33:24;98628.28;;;2.49;32.37
74334;BME280;62753;40.394;-80.022;2023-12-20T08:35:50;98627.71;;;2.93;31.46
74334;BME280;62753;40.394;-80.022;2023-12-20T08:38:17;98621.36;;;2.46;32.04
74334;BME280;62753;40.394;-80.022;2023-12-20T08:40:41;98621.01;;;3.09;32.05
74334;BME280;62753;40.394;-80.022;2023-12-20T08:43:08;98618.40;;;2.46;32.22
74334;BME280;62753;40.394;-80.022;2023-12-20T08:45:33;98623.52;;;3.17;31.66
74334;BME280;62753;40.394;-80.022;2023-12-20T08:48:00;98617.33;;;2.78;31.99
74334;BME280;62753;40.394;-80.022;2023-12-20T08:50:25;98618.39;;;1.69;33.72
74334;BME280;62753;40.394;-80.022;2023-12-20T08:52:51;98619.55;;;1.92;33.38
74334;BME280;62753;40.394;-80.022;2023-12-20T08:55:15;98621.70;;;2.27;33.00
74334;BME280;62753;40.394;-80.022;2023-12-20T08:57:41;98622.03;;;2.32;32.87
74334;BME280;62753;40.394;-80.022;2023-12-20T09:00:10;98621.00;;;2.53;32.45
74334;BME280;62753;40.394;-80.022;2023-12-20T09:02:33;98621.71;;;2.39;33.01
74334;BME280;62753;40.394;-80.022;2023-12-20T09:05:00;98621.91;;;2.25;32.86
74334;BME280;62753;40.394;-80.022;2023-12-20T09:07:24;98627.39;;;2.61;32.12
74334;BME280;62753;40.394;-80.022;2023-12-20T09:09:53;98624.55;;;3.10;32.05
74334;BME280;62753;40.394;-80.022;2023-12-20T09:12:16;98622.08;;;2.80;32.22
74334;BME280;62753;40.394;-80.022;2023-12-20T09:14:41;98623.27;;;3.11;31.83
74334;BME280;62753;40.394;-80.022;2023-12-20T09:17:08;98618.37;;;4.06;30.40
74334;BME280;62753;40.394;-80.022;2023-12-20T09:19:32;98619.04;;;3.53;31.25
74334;BME280;62753;40.394;-80.022;2023-12-20T09:21:57;98614.15;;;3.45;30.69
74334;BME280;62753;40.394;-80.022;2023-12-20T09:24:23;98612.15;;;2.56;32.11
74334;BME280;62753;40.394;-80.022;2023-12-20T09:26:49;98615.11;;;2.76;31.71
74334;BME280;62753;40.394;-80.022;2023-12-20T09:29:14;98615.13;;;2.57;31.91
74334;BME280;62753;40.394;-80.022;2023-12-20T09:31:40;98607.20;;;3.50;31.44
74334;BME280;62753;40.394;-80.022;2023-12-20T09:34:07;98603.74;;;3.38;31.23
74334;BME280;62753;40.394;-80.022;2023-12-20T09:36:31;98605.61;;;3.85;30.54
74334;BME280;62753;40.394;-80.022;2023-12-20T09:38:57;98607.10;;;2.80;31.92
74334;BME280;62753;40.394;-80.022;2023-12-20T09:41:24;98608.58;;;3.27;31.33
74334;BME280;62753;40.394;-80.022;2023-12-20T09:43:53;98605.68;;;3.39;31.14
74334;BME280;62753;40.394;-80.022;2023-12-20T09:46:16;98607.65;;;2.89;31.88
74334;BME280;62753;40.394;-80.022;2023-12-20T09:48:42;98607.18;;;2.62;31.91
74334;BME280;62753;40.394;-80.022;2023-12-20T09:51:06;98606.93;;;3.04;32.00
74334;BME280;62753;40.394;-80.022;2023-12-20T09:53:35;98602.36;;;2.86;32.76
74334;BME280;62753;40.394;-80.022;2023-12-20T09:55:58;98607.55;;;3.60;31.31
74334;BME280;62753;40.394;-80.022;2023-12-20T09:58:23;98604.86;;;2.55;32.39
74334;BME280;62753;40.394;-80.022;2023-12-20T10:00:49;98602.27;;;3.79;31.32
74334;BME280;62753;40.394;-80.022;2023-12-20T10:03:14;98597.32;;;2.56;32.67
74334;BME280;62753;40.394;-80.022;2023-12-20T10:05:43;98602.37;;;2.72;32.79
74334;BME280;62753;40.394;-80.022;2023-12-20T10:08:05;98604.27;;;2.44;32.86
74334;BME280;62753;40.394;-80.022;2023-12-20T10:10:31;98609.82;;;2.24;33.60
74334;BME280;62753;40.394;-80.022;2023-12-20T10:13:04;98609.10;;;2.15;33.11
74334;BME280;62753;40.394;-80.022;2023-12-20T10:15:23;98618.54;;;3.02;32.26
74334;BME280;62753;40.394;-80.022;2023-12-20T10:17:49;98617.28;;;3.77;31.22
74334;BME280;62753;40.394;-80.022;2023-12-20T10:20:14;98617.97;;;3.82;31.07
74334;BME280;62753;40.394;-80.022;2023-12-20T10:22:39;98619.55;;;3.56;31.31
74334;BME280;62753;40.394;-80.022;2023-12-20T10:25:06;98619.32;;;3.60;31.03
74334;BME280;62753;40.394;-80.022;2023-12-20T10:27:31;98618.41;;;4.21;30.12
74334;BME280;62753;40.394;-80.022;2023-12-20T10:29:59;98627.20;;;3.78;30.23
74334;BME280;62753;40.394;-80.022;2023-12-20T10:32:24;98629.60;;;3.31;31.18
74334;BME280;62753;40.394;-80.022;2023-12-20T10:34:48;98627.40;;;3.13;32.14
74334;BME280;62753;40.394;-80.022;2023-12-20T10:37:13;98627.38;;;2.40;32.59
74334;BME280;62753;40.394;-80.022;2023-12-20T10:39:43;98631.51;;;1.61;34.15
74334;BME280;62753;40.394;-80.022;2023-12-20T10:42:06;98630.85;;;1.97;33.87
74334;BME280;62753;40.394;-80.022;2023-12-20T10:44:30;98634.90;;;1.99;34.24
74334;BME280;62753;40.394;-80.022;2023-12-20T10:46:56;98639.84;;;1.29;34.75
74334;BME280;62753;40.394;-80.022;2023-12-20T10:49:21;98640.06;;;1.07;35.40
74334;BME280;62753;40.394;-80.022;2023-12-20T10:51:48;98641.98;;;1.35;35.40
74334;BME280;62753;40.394;-80.022;2023-12-20T10:54:14;98644.24;;;1.45;35.37
74334;BME280;62753;40.394;-80.022;2023-12-20T10:56:38;98647.28;;;1.33;35.56
74334;BME280;62753;40.394;-80.022;2023-12-20T10:59:04;98647.50;;;1.10;35.98
74334;BME280;62753;40.394;-80.022;2023-12-20T11:01:30;98649.71;;;1.25;35.90
74334;BME280;62753;40.394;-80.022;2023-12-20T11:03:55;98654.59;;;1.24;36.13
74334;BME280;62753;40.394;-80.022;2023-12-20T11:06:29;98659.71;;;1.47;35.52
74334;BME280;62753;40.394;-80.022;2023-12-20T11:08:51;98658.87;;;2.11;34.37
74334;BME280;62753;40.394;-80.022;2023-12-20T11:11:18;98657.33;;;2.13;34.42
74334;BME280;62753;40.394;-80.022;2023-12-20T11:13:44;98659.01;;;1.60;35.13
74334;BME280;62753;40.394;-80.022;2023-12-20T11:16:04;98657.19;;;1.13;35.52
74334;BME280;62753;40.394;-80.022;2023-12-20T11:18:30;98659.79;;;1.50;35.41
74334;BME280;62753;40.394;-80.022;2023-12-20T11:20:54;98663.40;;;2.04;34.55
74334;BME280;62753;40.394;-80.022;2023-12-20T11:23:21;98664.27;;;1.95;34.31
74334;BME280;62753;40.394;-80.022;2023-12-20T11:25:51;98665.36;;;2.72;32.75
74334;BME280;62753;40.394;-80.022;2023-12-20T11:28:12;98671.19;;;1.35;34.15
74334;BME280;62753;40.394;-80.022;2023-12-20T11:30:46;98671.41;;;2.77;32.49
74334;BME280;62753;40.394;-80.022;2023-12-20T11:33:04;98671.96;;;2.99;32.01
74334;BME280;62753;40.394;-80.022;2023-12-20T11:35:28;98673.60;;;2.58;32.79
74334;BME280;62753;40.394;-80.022;2023-12-20T11:37:54;98676.04;;;2.92;32.20
74334;BME280;62753;40.394;-80.022;2023-12-20T11:40:19;98680.57;;;2.79;32.15
74334;BME280;62753;40.394;-80.022;2023-12-20T11:42:48;98681.98;;;3.22;32.13
74334;BME280;62753;40.394;-80.022;2023-12-20T11:45:11;98684.08;;;2.40;32.39
74334;BME280;62753;40.394;-80.022;2023-12-20T11:47:39;98681.11;;;2.99;31.90
74334;BME280;62753;40.394;-80.022;2023-12-20T11:50:05;98680.14;;;2.19;32.66
74334;BME280;62753;40.394;-80.022;2023-12-20T11:52:28;98681.59;;;3.27;31.96
74334;BME280;62753;40.394;-80.022;2023-12-20T11:54:54;98679.03;;;3.36;31.38
74334;BME280;62753;40.394;-80.022;2023-12-20T11:57:19;98677.78;;;2.42;33.02
74334;BME280;62753;40.394;-80.022;2023-12-20T11:59:45;98684.11;;;2.03;34.00
74334;BME280;62753;40.394;-80.022;2023-12-20T12:02:11;98683.13;;;0.76;35.82
74334;BME280;62753;40.394;-80.022;2023-12-20T12:04:37;98686.73;;;0.21;37.14
74334;BME280;62753;40.394;-80.022;2023-12-20T12:07:01;98682.44;;;0.91;36.53
74334;BME280;62753;40.394;-80.022;2023-12-20T12:09:28;98683.57;;;1.54;34.85
74334;BME280;62753;40.394;-80.022;2023-12-20T12:11:52;98686.16;;;1.73;35.01
74334;BME280;62753;40.394;-80.022;2023-12-20T12:14:17;98686.86;;;1.81;34.86
74334;BME280;62753;40.394;-80.022;2023-12-20T12:16:47;98687.84;;;2.54;34.05
74334;BME280;62753;40.394;-80.022;2023-12-20T12:19:20;98692.75;;;2.36;33.34
74334;BME280;62753;40.394;-80.022;2023-12-20T12:21:35;98700.29;;;1.64;34.68
74334;BME280;62753;40.394;-80.022;2023-12-20T12:24:09;98709.54;;;1.54;35.13
74334;BME280;62753;40.394;-80.022;2023-12-20T12:26:26;98710.08;;;2.03;33.98
74334;BME280;62753;40.394;-80.022;2023-12-20T12:28:51;98711.05;;;2.52;33.61
74334;BME280;62753;40.394;-80.022;2023-12-20T12:31:18;98712.08;;;1.70;34.03
74334;BME280;62753;40.394;-80.022;2023-12-20T12:33:43;98715.66;;;1.71;33.79
74334;BME280;62753;40.394;-80.022;2023-12-20T12:36:09;98719.23;;;2.17;33.15
74334;BME280;62753;40.394;-80.022;2023-12-20T12:38:35;98725.21;;;2.48;32.94
74334;BME280;62753;40.394;-80.022;2023-12-20T12:41:00;98724.58;;;2.23;33.12